createdAt,value
2023-03-04T00:00:15.108Z,1.60
2023-03-04T00:02:42.598Z,1.60
2023-03-04T00:05:11.274Z,1.60
2023-03-04T00:07:38.590Z,1.50
2023-03-04T00:10:06.985Z,1.80
2023-03-04T00:12:34.403Z,1.60
2023-03-04T00:15:01.848Z,1.60
2023-03-04T00:17:31.414Z,1.60
2023-03-04T00:19:58.976Z,1.60
2023-03-04T00:22:26.216Z,1.60
2023-03-04T00:24:53.388Z,1.60
2023-03-04T00:27:20.537Z,1.60
2023-03-04T00:29:47.837Z,1.50
2023-03-04T00:32:16.252Z,1.50
2023-03-04T00:34:43.880Z,1.50
2023-03-04T00:37:11.062Z,1.50
2023-03-04T00:39:38.261Z,1.50
2023-03-04T00:42:05.473Z,1.50
2023-03-04T00:44:32.939Z,1.50
2023-03-04T00:47:00.284Z,1.50
2023-03-04T00:49:27.552Z,1.40
2023-03-04T00:51:54.754Z,1.40
2023-03-04T00:54:21.980Z,1.40
2023-03-04T00:56:49.386Z,1.40
2023-03-04T00:59:16.627Z,1.40
2023-03-04T01:01:44.176Z,1.30
2023-03-04T01:04:11.506Z,1.40
2023-03-04T01:06:39.001Z,1.30
2023-03-04T01:09:06.535Z,1.30
2023-03-04T01:11:34.128Z,2.10
2023-03-04T01:14:01.823Z,1.30
2023-03-04T01:16:29.070Z,1.30
2023-03-04T01:18:56.290Z,1.30
2023-03-04T01:21:23.741Z,1.30
2023-03-04T01:23:51.371Z,1.30
2023-03-04T01:26:19.295Z,1.20
2023-03-04T01:28:47.885Z,1.20
2023-03-04T01:31:15.160Z,1.20
2023-03-04T01:33:42.497Z,1.20
2023-03-04T01:36:11.541Z,1.20
2023-03-04T01:38:38.746Z,1.10
2023-03-04T01:41:07.624Z,1.10
2023-03-04T01:43:36.758Z,1.20
2023-03-04T01:46:04.915Z,1.20
2023-03-04T01:48:37.317Z,1.20
2023-03-04T01:51:06.916Z,1.20
2023-03-04T01:53:34.369Z,1.20
2023-03-04T01:56:14.629Z,1.20
2023-03-04T01:58:42.283Z,1.20
2023-03-04T02:01:12.673Z,1.20
2023-03-04T02:03:40.445Z,1.20
2023-03-04T02:06:07.928Z,1.10
2023-03-04T02:08:35.301Z,1.10
2023-03-04T02:11:02.545Z,1.10
2023-03-04T02:13:30.017Z,1.10
2023-03-04T02:15:57.550Z,1.10
2023-03-04T02:18:25.213Z,1.00
2023-03-04T02:21:19.835Z,1.00
2023-03-04T02:23:57.327Z,1.00
2023-03-04T02:26:27.984Z,1.00
2023-03-04T02:28:58.367Z,1.00
2023-03-04T02:31:31.735Z,1.00
2023-03-04T02:34:02.384Z,1.00
2023-03-04T02:36:30.084Z,1.00
2023-03-04T02:39:04.389Z,1.00
2023-03-04T02:41:32.360Z,1.00
2023-03-04T02:44:00.493Z,0.90
2023-03-04T02:46:28.428Z,1.00
2023-03-04T02:48:56.107Z,0.90
2023-03-04T02:51:23.577Z,0.90
2023-03-04T02:53:50.965Z,0.90
2023-03-04T02:56:18.493Z,0.80
2023-03-04T02:58:45.910Z,0.80
2023-03-04T03:01:13.903Z,0.80
2023-03-04T03:03:42.163Z,0.80
2023-03-04T03:06:11.140Z,0.80
2023-03-04T03:08:38.793Z,0.80
2023-03-04T03:11:07.712Z,0.80
2023-03-04T03:13:36.802Z,0.80
2023-03-04T03:16:05.064Z,0.80
2023-03-04T03:18:32.504Z,0.80
2023-03-04T03:20:59.970Z,0.80
2023-03-04T03:23:27.469Z,0.80
2023-03-04T03:25:54.720Z,0.80
2023-03-04T03:28:22.016Z,0.80
2023-03-04T03:30:49.320Z,0.80
2023-03-04T03:33:18.180Z,0.80
2023-03-04T03:35:45.784Z,0.90
2023-03-04T03:38:13.146Z,0.90
2023-03-04T03:40:40.451Z,0.90
2023-03-04T03:43:07.899Z,0.90
2023-03-04T03:45:35.195Z,0.90
2023-03-04T03:48:02.566Z,0.90
2023-03-04T03:50:29.813Z,0.90
2023-03-04T03:52:57.447Z,0.90
2023-03-04T03:55:24.646Z,0.90
2023-03-04T03:57:51.777Z,0.90
2023-03-04T04:00:19.409Z,0.90
2023-03-04T04:02:46.742Z,0.80
2023-03-04T04:05:14.583Z,0.90
2023-03-04T04:07:42.081Z,0.90
2023-03-04T04:10:11.216Z,0.80
2023-03-04T04:12:38.733Z,0.80
2023-03-04T04:15:06.769Z,0.80
2023-03-04T04:17:35.002Z,0.70
2023-03-04T04:20:02.249Z,0.60
2023-03-04T04:22:29.525Z,0.60
2023-03-04T04:24:56.734Z,0.60
2023-03-04T04:27:23.993Z,0.60
2023-03-04T04:29:51.468Z,0.60
2023-03-04T04:32:18.749Z,0.60
2023-03-04T04:34:45.998Z,0.60
2023-03-04T04:37:13.421Z,0.60
2023-03-04T04:39:40.656Z,0.50
2023-03-04T04:42:10.654Z,0.50
2023-03-04T04:44:38.865Z,0.50
2023-03-04T04:47:07.402Z,0.70
2023-03-04T04:49:34.879Z,0.50
2023-03-04T04:52:02.537Z,0.50
2023-03-04T04:54:30.109Z,0.50
2023-03-04T04:56:57.388Z,0.50
2023-03-04T04:59:25.951Z,0.40
2023-03-04T05:01:53.351Z,0.40
2023-03-04T05:04:20.579Z,0.30
2023-03-04T05:06:48.031Z,0.30
2023-03-04T05:09:15.349Z,0.30
2023-03-04T05:11:42.782Z,0.30
2023-03-04T05:14:10.115Z,0.20
2023-03-04T05:16:37.541Z,0.20
2023-03-04T05:19:04.797Z,0.20
2023-03-04T05:21:32.221Z,0.20
2023-03-04T05:23:59.486Z,0.10
2023-03-04T05:26:26.772Z,0.10
2023-03-04T05:28:54.198Z,0.00
2023-03-04T05:31:21.666Z,0.10
2023-03-04T05:33:49.122Z,0.00
2023-03-04T05:36:16.802Z,0.00
2023-03-04T05:38:44.386Z,0.00
2023-03-04T05:41:12.328Z,0.00
2023-03-04T05:43:42.711Z,0.00
2023-03-04T05:46:16.134Z,0.00
2023-03-04T05:48:45.004Z,0.00
2023-03-04T05:51:12.423Z,0.00
2023-03-04T05:53:41.599Z,0.00
2023-03-04T05:56:13.654Z,0.00
2023-03-04T05:58:41.206Z,0.00
2023-03-04T06:01:08.879Z,-0.10
2023-03-04T06:03:36.593Z,0.00
2023-03-04T06:06:04.362Z,0.00
2023-03-04T06:08:32.139Z,0.00
2023-03-04T06:10:59.514Z,0.00
2023-03-04T06:13:28.217Z,0.00
2023-03-04T06:15:57.922Z,0.00
2023-03-04T06:18:26.872Z,0.00
2023-03-04T06:20:59.281Z,0.10
2023-03-04T06:23:27.897Z,0.00
2023-03-04T06:25:57.306Z,0.10
2023-03-04T06:28:25.764Z,0.20
2023-03-04T06:30:53.695Z,0.20
2023-03-04T06:33:21.452Z,0.20
2023-03-04T06:35:49.147Z,0.30
2023-03-04T06:38:16.662Z,0.30
2023-03-04T06:40:46.008Z,0.30
2023-03-04T06:43:13.190Z,0.40
2023-03-04T06:45:40.626Z,0.50
2023-03-04T06:48:07.831Z,0.50
2023-03-04T06:50:35.058Z,0.60
2023-03-04T06:53:02.249Z,0.60
2023-03-04T06:55:29.431Z,0.70
2023-03-04T06:57:56.671Z,0.80
2023-03-04T07:00:24.511Z,0.80
2023-03-04T07:02:54.087Z,0.90
2023-03-04T07:05:22.255Z,0.90
2023-03-04T07:07:49.907Z,1.00
2023-03-04T07:10:18.887Z,1.10
2023-03-04T07:12:46.413Z,1.20
2023-03-04T07:15:14.051Z,1.20
2023-03-04T07:17:41.476Z,1.30
2023-03-04T07:20:09.655Z,1.40
2023-03-04T07:22:37.116Z,1.50
2023-03-04T07:25:05.745Z,1.60
2023-03-04T07:27:33.074Z,1.70
2023-03-04T07:30:00.328Z,1.80
2023-03-04T07:32:27.764Z,2.00
2023-03-04T07:34:55.248Z,2.00
2023-03-04T07:37:22.847Z,2.00
2023-03-04T07:39:50.118Z,2.10
2023-03-04T07:42:17.379Z,2.20
2023-03-04T07:44:53.485Z,2.30
2023-03-04T07:47:20.924Z,2.30
2023-03-04T07:49:48.446Z,2.40
2023-03-04T07:52:15.878Z,2.50
2023-03-04T07:54:43.137Z,2.40
2023-03-04T07:57:10.560Z,2.40
2023-03-04T07:59:38.015Z,2.50
2023-03-04T08:02:05.239Z,2.50
2023-03-04T08:04:32.699Z,2.60
2023-03-04T08:07:00.136Z,2.60
2023-03-04T08:09:27.538Z,2.60
2023-03-04T08:11:54.737Z,2.60
2023-03-04T08:14:21.993Z,2.60
2023-03-04T08:16:49.451Z,2.60
2023-03-04T08:19:16.838Z,2.70
2023-03-04T08:21:44.315Z,2.80
2023-03-04T08:24:12.019Z,3.00
2023-03-04T08:26:43.044Z,3.00
2023-03-04T08:29:14.439Z,3.10
2023-03-04T08:31:42.258Z,3.00
2023-03-04T08:34:10.642Z,2.90
2023-03-04T08:36:37.980Z,3.00
2023-03-04T08:39:05.544Z,3.00
2023-03-04T08:41:33.104Z,3.10
2023-03-04T08:44:01.477Z,3.10
2023-03-04T08:46:29.433Z,3.10
2023-03-04T08:48:57.434Z,3.10
2023-03-04T08:51:25.198Z,3.10
2023-03-04T08:53:52.377Z,3.30
2023-03-04T08:56:19.629Z,3.40
2023-03-04T08:58:46.967Z,3.50
2023-03-04T09:01:15.453Z,3.50
2023-03-04T09:03:42.966Z,3.50
2023-03-04T09:06:17.102Z,3.60
2023-03-04T09:08:45.443Z,3.70
2023-03-04T09:11:12.898Z,3.70
2023-03-04T09:13:40.615Z,3.80
2023-03-04T09:16:15.500Z,3.90
2023-03-04T09:18:43.709Z,3.80
2023-03-04T09:21:11.427Z,3.80
2023-03-04T09:23:39.394Z,3.80
2023-03-04T09:26:26.566Z,3.90
2023-03-04T09:28:56.103Z,4.10
2023-03-04T09:31:24.343Z,4.20
2023-03-04T09:33:52.565Z,4.20
2023-03-04T09:36:20.221Z,4.30
2023-03-04T09:38:47.452Z,4.50
2023-03-04T09:41:48.766Z,4.50
2023-03-04T09:44:45.692Z,4.60
2023-03-04T09:47:16.417Z,4.80
2023-03-04T09:49:58.894Z,4.70
2023-03-04T09:52:29.022Z,4.80
2023-03-04T09:55:15.149Z,4.70
2023-03-04T09:58:21.288Z,4.70
2023-03-04T10:01:28.973Z,4.70
2023-03-04T10:04:02.770Z,4.80
2023-03-04T10:06:31.858Z,4.90
2023-03-04T10:09:07.572Z,4.90
2023-03-04T10:11:43.647Z,5.00
2023-03-04T10:14:23.098Z,5.10
2023-03-04T10:17:18.043Z,5.10
2023-03-04T10:20:09.751Z,5.20
2023-03-04T10:22:46.353Z,5.10
2023-03-04T10:25:27.623Z,5.10
2023-03-04T10:28:07.211Z,5.10
2023-03-04T10:30:48.460Z,5.20
2023-03-04T10:33:22.132Z,5.30
2023-03-04T10:36:23.250Z,5.30
2023-03-04T10:38:55.014Z,5.40
2023-03-04T10:41:26.173Z,5.60
2023-03-04T10:44:08.624Z,5.70
2023-03-04T10:46:44.184Z,5.70
2023-03-04T10:49:14.627Z,5.90
2023-03-04T10:51:43.584Z,5.80
2023-03-04T10:54:48.758Z,5.80
2023-03-04T10:57:28.934Z,6.00
2023-03-04T10:59:57.139Z,6.10
2023-03-04T11:02:28.267Z,6.30
2023-03-04T11:05:21.378Z,6.20
2023-03-04T11:07:58.368Z,6.30
2023-03-04T11:10:40.641Z,6.30
2023-03-04T11:13:18.432Z,6.40
2023-03-04T11:15:58.182Z,6.60
2023-03-04T11:18:30.590Z,6.70
2023-03-04T11:20:58.516Z,6.70
2023-03-04T11:23:33.958Z,6.80
2023-03-04T11:26:26.513Z,6.70
2023-03-04T11:28:56.467Z,6.40
2023-03-04T11:31:46.661Z,6.60
2023-03-04T11:34:27.139Z,6.70
2023-03-04T11:37:30.564Z,6.80
2023-03-04T11:40:07.190Z,7.00
2023-03-04T11:42:51.527Z,6.60
2023-03-04T11:45:33.847Z,6.40
2023-03-04T11:48:21.436Z,6.20
2023-03-04T11:51:12.879Z,6.10
2023-03-04T11:54:01.177Z,6.30
2023-03-04T11:56:37.553Z,6.40
2023-03-04T11:59:34.585Z,6.60
2023-03-04T12:02:10.988Z,6.90
2023-03-04T12:04:56.748Z,6.90
2023-03-04T12:07:51.361Z,6.80
2023-03-04T12:10:39.582Z,6.60
2023-03-04T12:13:12.865Z,6.50
2023-03-04T12:16:19.625Z,6.70
2023-03-04T12:19:14.515Z,6.70
2023-03-04T12:21:42.462Z,6.90
2023-03-04T12:25:07.142Z,7.10
2023-03-04T12:27:58.001Z,7.20
2023-03-04T12:30:43.557Z,7.20
2023-03-04T12:33:35.175Z,7.30
2023-03-04T12:36:11.320Z,7.30
2023-03-04T12:38:56.581Z,7.40
2023-03-04T12:41:29.660Z,7.40
2023-03-04T12:44:29.013Z,7.30
2023-03-04T12:47:23.855Z,7.50
2023-03-04T12:50:28.750Z,7.60
2023-03-04T12:53:17.727Z,7.60
2023-03-04T12:55:47.062Z,7.50
2023-03-04T12:58:18.640Z,7.60
2023-03-04T13:01:12.693Z,7.90
2023-03-04T13:04:30.472Z,7.50
2023-03-04T13:07:13.049Z,7.40
2023-03-04T13:09:52.749Z,7.60
2023-03-04T13:12:23.423Z,7.90
2023-03-04T13:15:08.727Z,7.80
2023-03-04T13:17:43.616Z,7.90
2023-03-04T13:20:20.865Z,7.80
2023-03-04T13:22:59.455Z,7.60
2023-03-04T13:25:32.546Z,7.60
2023-03-04T13:28:02.829Z,7.50
2023-03-04T13:30:33.345Z,7.10
2023-03-04T13:33:13.448Z,7.00
2023-03-04T13:35:47.599Z,7.10
2023-03-04T13:38:25.217Z,7.10
2023-03-04T13:41:15.920Z,7.00
2023-03-04T13:43:47.414Z,7.00
2023-03-04T13:46:21.024Z,7.10
2023-03-04T13:48:51.503Z,7.10
2023-03-04T13:51:44.082Z,6.90
2023-03-04T13:54:23.916Z,6.90
2023-03-04T13:57:00.222Z,6.70
2023-03-04T13:59:28.963Z,6.80
2023-03-04T14:02:00.889Z,6.70
2023-03-04T14:04:38.573Z,6.60
2023-03-04T14:07:29.203Z,6.50
2023-03-04T14:09:58.122Z,6.50
2023-03-04T14:12:28.378Z,6.60
2023-03-04T14:14:59.177Z,6.70
2023-03-04T14:17:36.857Z,6.40
2023-03-04T14:20:25.122Z,6.40
2023-03-04T14:22:53.302Z,6.40
2023-03-04T14:25:35.441Z,6.30
2023-03-04T14:28:10.470Z,6.50
2023-03-04T14:30:42.694Z,6.60
2023-03-04T14:33:25.520Z,6.40
2023-03-04T14:35:56.371Z,6.30
2023-03-04T14:38:35.556Z,6.50
2023-03-04T14:41:10.827Z,6.00
2023-03-04T14:43:46.294Z,6.00
2023-03-04T14:46:18.819Z,6.00
2023-03-04T14:48:50.985Z,5.80
2023-03-04T14:51:36.795Z,6.10
2023-03-04T14:54:04.969Z,5.90
2023-03-04T14:56:35.152Z,5.90
2023-03-04T14:59:02.634Z,5.70
2023-03-04T15:01:29.853Z,5.50
2023-03-04T15:03:59.976Z,5.50
2023-03-04T15:06:30.591Z,5.40
2023-03-04T15:09:07.075Z,5.00
2023-03-04T15:11:49.338Z,5.10
2023-03-04T15:14:44.498Z,5.00
2023-03-04T15:17:38.357Z,4.90
2023-03-04T15:20:08.707Z,4.70
2023-03-04T15:22:49.142Z,4.50
2023-03-04T15:25:20.114Z,4.40
2023-03-04T15:27:49.655Z,4.30
2023-03-04T15:30:18.530Z,4.20
2023-03-04T15:32:45.830Z,4.10
2023-03-04T15:35:13.966Z,4.20
2023-03-04T15:37:41.905Z,4.20
2023-03-04T15:40:38.912Z,4.20
2023-03-04T15:43:06.926Z,4.00
2023-03-04T15:45:39.056Z,3.80
2023-03-04T15:48:08.912Z,3.70
2023-03-04T15:50:44.000Z,3.60
2023-03-04T15:53:22.103Z,3.60
2023-03-04T15:55:49.540Z,3.50
2023-03-04T15:58:16.906Z,3.40
2023-03-04T16:00:44.106Z,3.40
2023-03-04T16:03:17.151Z,3.20
2023-03-04T16:05:46.966Z,3.30
2023-03-04T16:08:22.353Z,3.10
2023-03-04T16:10:50.840Z,3.20
2023-03-04T16:13:22.986Z,3.10
2023-03-04T16:15:50.439Z,3.00
2023-03-04T16:18:18.109Z,3.10
2023-03-04T16:20:48.732Z,3.20
2023-03-04T16:23:23.975Z,3.10
2023-03-04T16:25:56.262Z,3.10
2023-03-04T16:28:23.551Z,3.10
2023-03-04T16:30:50.937Z,2.90
2023-03-04T16:33:18.232Z,2.80
2023-03-04T16:35:46.125Z,2.60
2023-03-04T16:38:25.873Z,2.50
2023-03-04T16:40:55.071Z,2.40
2023-03-04T16:43:22.774Z,2.40
2023-03-04T16:45:50.187Z,2.40
2023-03-04T16:48:17.652Z,2.30
2023-03-04T16:50:45.032Z,2.20
2023-03-04T16:53:24.784Z,2.10
2023-03-04T16:55:52.009Z,2.00
2023-03-04T16:58:19.162Z,2.00
2023-03-04T17:00:46.480Z,2.00
2023-03-04T17:03:13.627Z,2.10
2023-03-04T17:05:41.024Z,2.00
2023-03-04T17:08:08.206Z,1.90
2023-03-04T17:10:35.547Z,1.80
2023-03-04T17:13:02.954Z,1.80
2023-03-04T17:15:30.140Z,1.60
2023-03-04T17:17:57.554Z,1.60
2023-03-04T17:20:24.750Z,1.60
2023-03-04T17:22:53.068Z,1.60
2023-03-04T17:25:20.386Z,1.50
2023-03-04T17:27:47.622Z,1.40
2023-03-04T17:30:14.990Z,1.40
2023-03-04T17:32:42.211Z,1.50
2023-03-04T17:35:10.498Z,1.40
2023-03-04T17:37:37.989Z,1.30
2023-03-04T17:40:08.515Z,1.10
2023-03-04T17:42:35.765Z,1.00
2023-03-04T17:45:03.160Z,0.90
2023-03-04T17:47:30.343Z,0.80
2023-03-04T17:49:57.534Z,1.00
2023-03-04T17:52:25.040Z,0.90
2023-03-04T17:54:52.242Z,0.90
2023-03-04T17:57:19.524Z,1.00
2023-03-04T17:59:47.091Z,0.90
2023-03-04T18:02:15.836Z,1.00
2023-03-04T18:04:45.892Z,1.10
2023-03-04T18:07:13.159Z,0.90
2023-03-04T18:09:40.414Z,1.00
2023-03-04T18:12:07.852Z,0.90
2023-03-04T18:14:35.003Z,0.80
2023-03-04T18:17:03.461Z,0.90
2023-03-04T18:19:30.730Z,0.80
2023-03-04T18:21:58.214Z,0.80
2023-03-04T18:24:25.567Z,0.70
2023-03-04T18:26:52.777Z,0.80
2023-03-04T18:29:19.982Z,0.90
2023-03-04T18:31:47.219Z,0.80
2023-03-04T18:34:14.504Z,0.80
2023-03-04T18:36:41.756Z,0.60
2023-03-04T18:39:09.366Z,0.60
2023-03-04T18:41:36.563Z,0.60
2023-03-04T18:44:05.010Z,0.60
2023-03-04T18:46:44.922Z,0.70
2023-03-04T18:49:14.329Z,0.60
2023-03-04T18:51:41.753Z,0.70
2023-03-04T18:54:09.169Z,0.50
2023-03-04T18:56:47.788Z,0.60
2023-03-04T18:59:22.989Z,0.50
2023-03-04T19:01:52.159Z,0.60
2023-03-04T19:04:20.965Z,0.40
2023-03-04T19:06:48.251Z,0.30
2023-03-04T19:09:15.567Z,0.30
2023-03-04T19:11:42.823Z,0.30
2023-03-04T19:14:11.641Z,0.20
2023-03-04T19:16:39.984Z,0.30
2023-03-04T19:19:07.371Z,0.40
2023-03-04T19:21:38.183Z,0.50
2023-03-04T19:24:05.891Z,0.60
2023-03-04T19:26:33.470Z,0.60
2023-03-04T19:29:00.681Z,0.40
2023-03-04T19:31:28.259Z,0.40
2023-03-04T19:33:55.466Z,0.50
2023-03-04T19:36:22.797Z,0.40
2023-03-04T19:38:50.168Z,0.40
2023-03-04T19:41:18.042Z,0.50
2023-03-04T19:43:45.971Z,0.40
2023-03-04T19:46:14.076Z,0.40
2023-03-04T19:48:41.675Z,0.30
2023-03-04T19:51:29.366Z,0.30
2023-03-04T19:53:56.572Z,0.30
2023-03-04T19:56:24.264Z,0.30
2023-03-04T19:58:56.061Z,0.30
2023-03-04T20:01:28.264Z,0.30
2023-03-04T20:04:01.840Z,0.30
2023-03-04T20:06:30.394Z,0.30
2023-03-04T20:09:01.289Z,0.20
2023-03-04T20:11:30.457Z,0.00
2023-03-04T20:13:58.574Z,0.00
2023-03-04T20:16:26.417Z,0.10
2023-03-04T20:18:54.232Z,0.20
2023-03-04T20:21:21.418Z,0.20
2023-03-04T20:23:48.770Z,0.30
2023-03-04T20:26:16.209Z,0.30
2023-03-04T20:28:50.955Z,0.40
2023-03-04T20:31:25.708Z,0.40
2023-03-04T20:33:54.412Z,0.40
2023-03-04T20:36:23.280Z,0.50
2023-03-04T20:38:57.930Z,0.50
2023-03-04T20:41:28.897Z,0.50
2023-03-04T20:43:56.332Z,0.60
2023-03-04T20:46:39.017Z,0.70
2023-03-04T20:49:28.287Z,0.70
2023-03-04T20:52:02.630Z,0.70
2023-03-04T20:54:30.252Z,0.70
2023-03-04T20:56:57.867Z,0.70
2023-03-04T20:59:25.037Z,0.60
2023-03-04T21:01:52.916Z,0.70
2023-03-04T21:04:20.899Z,0.70
2023-03-04T21:06:48.349Z,0.70
2023-03-04T21:09:17.565Z,0.70
2023-03-04T21:11:45.619Z,0.70
2023-03-04T21:14:22.527Z,0.70
2023-03-04T21:16:52.067Z,0.70
2023-03-04T21:19:23.146Z,0.70
2023-03-04T21:21:51.650Z,0.70
2023-03-04T21:24:22.873Z,0.70
2023-03-04T21:26:50.764Z,0.70
2023-03-04T21:29:20.566Z,0.70
2023-03-04T21:31:52.816Z,0.70
2023-03-04T21:34:34.921Z,0.70
2023-03-04T21:37:04.063Z,0.60
2023-03-04T21:39:32.088Z,0.70
2023-03-04T21:42:00.536Z,0.80
2023-03-04T21:44:38.549Z,0.70
2023-03-04T21:47:12.594Z,0.80
2023-03-04T21:49:40.205Z,0.70
2023-03-04T21:52:07.494Z,0.70
2023-03-04T21:54:34.938Z,0.70
2023-03-04T21:57:02.142Z,0.60
2023-03-04T21:59:29.702Z,0.60
2023-03-04T22:01:57.201Z,0.60
2023-03-04T22:04:24.427Z,0.60
2023-03-04T22:06:51.823Z,0.60
2023-03-04T22:09:19.043Z,0.60
2023-03-04T22:11:46.361Z,0.60
2023-03-04T22:14:13.581Z,0.60
2023-03-04T22:16:54.092Z,0.60
2023-03-04T22:19:30.326Z,0.60
2023-03-04T22:21:57.484Z,0.60
2023-03-04T22:24:26.093Z,0.60
2023-03-04T22:26:53.463Z,0.60
2023-03-04T22:29:20.713Z,0.50
2023-03-04T22:31:48.037Z,0.50
2023-03-04T22:34:16.073Z,0.50
2023-03-04T22:36:45.422Z,0.50
2023-03-04T22:39:15.288Z,0.50
2023-03-04T22:41:42.698Z,0.50
2023-03-04T22:44:09.909Z,0.50
2023-03-04T22:46:39.016Z,0.50
2023-03-04T22:49:09.859Z,0.50
2023-03-04T22:51:38.383Z,0.60
2023-03-04T22:54:05.624Z,0.60
2023-03-04T22:56:33.517Z,0.60
2023-03-04T22:59:00.721Z,0.60
2023-03-04T23:01:27.927Z,0.60
2023-03-04T23:03:55.206Z,0.60
2023-03-04T23:06:25.162Z,0.60
2023-03-04T23:08:52.951Z,0.60
2023-03-04T23:11:23.635Z,0.70
2023-03-04T23:13:51.303Z,0.70
2023-03-04T23:16:19.553Z,0.80
2023-03-04T23:18:48.321Z,0.80
2023-03-04T23:21:19.426Z,0.80
2023-03-04T23:23:47.069Z,0.80
2023-03-04T23:26:18.887Z,0.80
2023-03-04T23:28:46.461Z,0.80
2023-03-04T23:31:17.179Z,0.80
2023-03-04T23:33:45.969Z,0.80
2023-03-04T23:36:15.553Z,0.80
2023-03-04T23:38:44.561Z,0.80
2023-03-04T23:41:17.103Z,0.80
2023-03-04T23:43:44.768Z,0.90
2023-03-04T23:46:12.551Z,0.80
2023-03-04T23:48:43.340Z,0.80
2023-03-04T23:51:11.157Z,0.80
2023-03-04T23:53:41.334Z,0.80
2023-03-04T23:56:10.563Z,0.80
2023-03-04T23:58:38.459Z,0.80
